Flight Track Log - Related Links

Times and Time Zones

All times are in EDT time to prevent confusion due to time zone crossing. See the SWA182 flight status page for this flight to view local times or setup timezone preferences in your user account.

Time Position Orientation Groundspeed Altitude Reporting Facility
EDT Latitude Longitude Course Direction KTS MPH feet Rate Location/Type
Thu 01:09:05 AM 36.0767 -115.1706 269° West 133 153 3,500  Level Los Angeles Center
Thu 01:09:35 AM 36.0764 -115.2000 269° West 163 188 4,100 1,794 Climbing Los Angeles Center
Thu 01:10:42 AM 36.0928 -115.2850 283° West 236 272 6,400 2,065 Climbing Los Angeles Center
Thu 01:11:08 AM 36.1156 -115.2917 347° North 236 272 7,300 3,000 Climbing Los Angeles Center
Thu 01:12:10 AM 36.1728 -115.2544 28° Northeast 258 297 10,800 3,122 Climbing Los Angeles Center
Thu 01:13:11 AM 36.1972 -115.1567 73° East 298 343 13,700 2,951 Climbing Los Angeles Center
Thu 01:14:12 AM 36.1969 -115.0436 90° East 326 375 16,800 3,378 Climbing Los Angeles Center
Thu 01:15:26 AM 36.1992 -114.8675 89° East 368 423 21,300 3,244 Climbing Los Angeles Center
Thu 01:16:27 AM 36.2369 -114.7467 69° East 398 458 24,100 2,537 Climbing Los Angeles Center
Thu 01:17:29 AM 36.3269 -114.6606 38° Northeast 408 470 26,500 2,341 Climbing Los Angeles Center
Thu 01:18:30 AM 36.4217 -114.5708 37° Northeast 423 487 28,900 2,459 Climbing Los Angeles Center
Thu 01:19:31 AM 36.5183 -114.4792 37° Northeast 435 501 31,500 2,311 Climbing Los Angeles Center
Thu 01:20:32 AM 36.6178 -114.3967 34° Northeast 430 495 33,600 1,805 Climbing Los Angeles Center
Thu 01:21:34 AM 36.7225 -114.3178 31° Northeast 437 503 35,200 1,561 Climbing Los Angeles Center
Thu 01:22:35 AM 36.8283 -114.2344 32° Northeast 448 516 36,800 885 Climbing Los Angeles Center
Thu 01:23:36 AM 36.9339 -114.1514 32° Northeast 449 517 37,000 98 Climbing Los Angeles Center
Thu 01:24:37 AM 37.0606 -114.0539 32° Northeast 446 513 37,000  Level Los Angeles Center
Thu 01:25:38 AM 37.1656 -113.9719 32° Northeast 445 512 37,000  Level Los Angeles Center
Thu 01:26:40 AM 37.2692 -113.8908 32° Northeast 442 509 37,000  Level Los Angeles Center
Thu 01:27:41 AM 37.3669 -113.8133 32° Northeast 439 505 37,000  Level Los Angeles Center
Thu 01:28:20 AM 37.4278 -113.7650 32° Northeast 436 502 37,000  Level Salt Lake Center
Thu 01:29:21 AM 37.5311 -113.6825 32° Northeast 437 503 37,000  Level Salt Lake Center
Thu 01:30:21 AM 37.6339 -113.6006 32° Northeast 436 502 37,000  Level Salt Lake Center
Thu 01:31:22 AM 37.7367 -113.5181 32° Northeast 435 501 37,000  Level Salt Lake Center
Thu 01:32:23 AM 37.8408 -113.4356 32° Northeast 437 503 37,000  Level Salt Lake Center
Thu 01:33:23 AM 37.9447 -113.3528 32° Northeast 438 504 37,000  Level Salt Lake Center
Thu 01:34:24 AM 38.0483 -113.2686 33° Northeast 439 505 37,000  Level Salt Lake Center
Thu 01:35:25 AM 38.1514 -113.1858 32° Northeast 437 503 37,000  Level Salt Lake Center
Thu 01:36:25 AM 38.2750 -113.0842 33° Northeast 438 504 37,000  Level Salt Lake Center
Thu 01:37:26 AM 38.3783 -113.0028 32° Northeast 436 502 37,000  Level Salt Lake Center
Thu 01:38:26 AM 38.4906 -112.9453 22° Northeast 433 498 37,000  Level Salt Lake Center
Thu 01:39:27 AM 38.6017 -112.8869 22° Northeast 432 497 37,000 -347 Level Salt Lake Center
Thu 01:40:27 AM 38.7125 -112.8264 23° Northeast 432 497 36,300 -843 Descending Salt Lake Center
Thu 01:41:28 AM 38.8228 -112.7656 23° Northeast 432 497 35,300 -934 Descending Salt Lake Center
Thu 01:42:29 AM 38.9344 -112.7072 22° Northeast 432 497 34,400 -942 Descending Salt Lake Center
Thu 01:43:29 AM 39.0447 -112.6447 24° Northeast 433 498 33,400 -1,289 Descending Salt Lake Center
Thu 01:44:30 AM 39.1547 -112.5856 23° Northeast 428 493 31,800 -1,884 Descending Salt Lake Center
Thu 01:45:30 AM 39.2661 -112.5269 22° Northeast 412 474 29,600 -2,083 Descending Salt Lake Center
Thu 01:46:31 AM 39.3672 -112.4706 23° Northeast 401 461 27,600 -2,033 Descending Salt Lake Center
Thu 01:47:31 AM 39.4644 -112.4150 24° Northeast 381 438 25,500 -2,033 Descending Salt Lake Center
Thu 01:48:32 AM 39.5583 -112.3600 24° Northeast 372 428 23,500 -1,934 Descending Salt Lake Center
Thu 01:49:32 AM 39.6508 -112.3067 24° Northeast 363 418 21,600 -1,934 Descending Salt Lake Center
Thu 01:50:33 AM 39.7403 -112.2550 24° Northeast 354 407 19,600 -1,884 Descending Salt Lake Center
Thu 01:51:33 AM 39.8283 -112.2039 24° Northeast 347 399 17,800 -1,888 Descending Salt Lake Center
Thu 01:52:02 AM 39.8742 -112.1858 17° North 347 399 16,800 -1,729 Descending Salt Lake Center
Thu 01:52:32 AM 39.9186 -112.1600 24° Northeast 350 403 16,100 -1,341 Descending Salt Lake Center
Thu 01:53:27 AM 39.9972 -112.1114 25° Northeast 351 404 14,900 -1,082 Descending Salt Lake Center
Thu 01:54:34 AM 40.1011 -112.0708 17° North 341 392 13,900 -850 Descending Salt Lake Center
Thu 01:55:34 AM 40.1911 -112.0353 17° North 338 389 13,100 -496 Descending Salt Lake Center
Thu 01:56:35 AM 40.2794 -112.0028 16° North 332 382 12,900 -1,279 Descending Salt Lake Center
Thu 01:57:36 AM 40.3656 -111.9708 16° North 330 380 10,500 -1,537 Descending Salt Lake Center
Thu 01:58:36 AM 40.4481 -111.9625 North 272 313 9,800 -645 Descending Salt Lake Center
Thu 01:59:37 AM 40.5117 -111.9692 355° North 222 255 9,200 -843 Descending Salt Lake Center
Thu 02:00:37 AM 40.5708 -111.9744 356° North 210 242 8,100 -1,091 Descending Salt Lake Center
Thu 02:01:38 AM 40.6261 -111.9811 355° North 198 228 7,000 -984 Descending Salt Lake Center
Thu 02:02:39 AM 40.6733 -111.9833 358° North 198 228 6,100 -893 Descending Salt Lake Center
Thu 02:03:39 AM 40.7228 -111.9908 353° North 154 177 5,200 -744 Descending Salt Lake Center
Thu 02:04:40 AM 40.7583 -111.9928 358° North 140 161 4,600 -492 Descending Salt Lake Center
Thu 02:05:41 AM 40.7908 -111.9967 355° North 120 138 4,200 -393 Descending Salt Lake Center
Thu 02:07:00 AM 40.7884 -111.9778 90° East  Level Estimated

Login

Don't have an account? Register now (free) for customized features, flight alerts, and more!